This is the latest recevied weather packets stored in our database for station/object KC4JIR. If no packets are shown the sender has not sent any weather packets the latest 10 day(s).
| Time | Temp. | Humidity | Pressure | Rain* | Wind** | Luminosity | Snow |
|---|---|---|---|---|---|---|---|
| 1777989341 | 20° C | 77% | 1014.4 hPa | 0 mm | - | 142 W/m² | - |
| 1777989037 | 18.89° C | 85% | 1014.6 hPa | 0 mm | - | 263 W/m² | - |
| 1777988733 | 18.33° C | 83% | 1014.4 hPa | 0 mm | - | 176 W/m² | - |
| 1777988431 | 18.33° C | 83% | 1013.9 hPa | 0 mm | - | 176 W/m² | - |
| 1777988128 | 18.33° C | 85% | 1014.4 hPa | 0 mm | - | 105 W/m² | - |
| 1777987823 | 17.78° C | 86% | 1014.3 hPa | 0 mm | - | 108 W/m² | - |
| 1777987520 | 16.11° C | 92% | 1014.2 hPa | 0 mm | - | 42 W/m² | - |
| 1777987218 | 16.11° C | 98% | 1014.2 hPa | 0 mm | - | 41 W/m² | - |
| 1777986613 | 13.89° C | 99% | 1014.2 hPa | 0 mm | - | 35 W/m² | - |
| 1777986310 | 13.89° C | 99% | 1014.3 hPa | 0 mm | - | 35 W/m² | - |
| 1777986009 | 13.89° C | 99% | 1014.4 hPa | 0 mm | - | 35 W/m² | - |
| 1777955874 | 12.78° C | 84% | 1013.5 hPa | 0 mm | - | 0 W/m² | - |
| 1777955570 | 12.78° C | 84% | 1013.5 hPa | 0 mm | - | 0 W/m² | - |
| 1777955267 | 12.78° C | 84% | 1013.5 hPa | 0 mm | - | 0 W/m² | - |
| 1777954964 | 13.33° C | 83% | 1013.6 hPa | 0 mm | - | 0 W/m² | - |
| 1777954660 | 13.33° C | 83% | 1013.4 hPa | 0 mm | - | 0 W/m² | - |
| 1777954357 | 13.33° C | 83% | 1013.4 hPa | 0 mm | - | 0 W/m² | - |
| 1777954055 | 13.33° C | 82% | 1013.6 hPa | 0 mm | - | 0 W/m² | - |
| 1777953752 | 13.33° C | 81% | 1013.6 hPa | 0 mm | - | 0 W/m² | - |
| 1777953449 | 13.33° C | 80% | 1013.6 hPa | 0 mm | - | 0 W/m² | - |
| 1777952842 | 13.89° C | 77% | 1013.7 hPa | 0 mm | - | 0 W/m² | - |
| 1777952539 | 13.89° C | 77% | 1013.7 hPa | 0 mm | - | 0 W/m² | - |
| 1777952235 | 13.89° C | 77% | 1013.8 hPa | 0 mm | - | 0 W/m² | - |
| 1777951933 | 13.89° C | 77% | 1013.6 hPa | 0 mm | - | 0 W/m² | - |
| 1777951631 | 14.44° C | 76% | 1013.8 hPa | 0 mm | - | 0 W/m² | - |
* Rain latest hour (hover to see other rain measurements)
** Current wind speed in m/s (hover to see current wind gust speed)